sensor_id;sensor_type;location;lat;lon;timestamp;pressure;altitude;pressure_sealevel;temperature;humidity
60319;BME280;46163;52.306;5.634;2023-02-10T00:01:44;103355.31;;;15.54;47.73
60319;BME280;46163;52.306;5.634;2023-02-10T00:04:13;103354.47;;;15.54;47.81
60319;BME280;46163;52.306;5.634;2023-02-10T00:06:39;103359.19;;;15.52;47.91
60319;BME280;46163;52.306;5.634;2023-02-10T00:09:06;103354.00;;;15.50;47.59
60319;BME280;46163;52.306;5.634;2023-02-10T00:11:32;103357.88;;;15.48;47.89
60319;BME280;46163;52.306;5.634;2023-02-10T00:14:17;103359.88;;;15.46;47.79
60319;BME280;46163;52.306;5.634;2023-02-10T00:16:44;103354.00;;;15.42;47.72
60319;BME280;46163;52.306;5.634;2023-02-10T00:19:09;103355.88;;;15.42;48.03
60319;BME280;46163;52.306;5.634;2023-02-10T00:21:35;103357.06;;;15.39;47.70
60319;BME280;46163;52.306;5.634;2023-02-10T00:24:01;103358.06;;;15.38;47.80
60319;BME280;46163;52.306;5.634;2023-02-10T00:26:27;103353.84;;;15.36;47.88
60319;BME280;46163;52.306;5.634;2023-02-10T00:28:52;103360.22;;;15.35;47.84
60319;BME280;46163;52.306;5.634;2023-02-10T00:31:18;103356.88;;;15.33;47.72
60319;BME280;46163;52.306;5.634;2023-02-10T00:33:45;103365.13;;;15.31;47.62
60319;BME280;46163;52.306;5.634;2023-02-10T00:36:12;103361.78;;;15.29;47.82
60319;BME280;46163;52.306;5.634;2023-02-10T00:38:39;103365.44;;;15.28;47.70
60319;BME280;46163;52.306;5.634;2023-02-10T00:41:11;103370.16;;;15.26;47.66
60319;BME280;46163;52.306;5.634;2023-02-10T00:43:37;103363.09;;;15.25;47.81
60319;BME280;46163;52.306;5.634;2023-02-10T00:46:05;103353.88;;;15.19;47.58
60319;BME280;46163;52.306;5.634;2023-02-10T00:48:31;103349.34;;;15.20;47.67
60319;BME280;46163;52.306;5.634;2023-02-10T00:50:57;103361.09;;;15.19;47.91
60319;BME280;46163;52.306;5.634;2023-02-10T00:53:22;103365.63;;;15.18;47.63
60319;BME280;46163;52.306;5.634;2023-02-10T00:55:48;103361.28;;;15.17;47.70
60319;BME280;46163;52.306;5.634;2023-02-10T00:58:13;103364.97;;;15.16;47.59
60319;BME280;46163;52.306;5.634;2023-02-10T01:00:39;103363.28;;;15.15;47.42
60319;BME280;46163;52.306;5.634;2023-02-10T01:03:05;103369.66;;;15.14;47.64
60319;BME280;46163;52.306;5.634;2023-02-10T01:05:30;103375.22;;;15.13;47.65
60319;BME280;46163;52.306;5.634;2023-02-10T01:07:56;103371.81;;;15.11;47.68
60319;BME280;46163;52.306;5.634;2023-02-10T01:10:21;103377.38;;;15.09;47.61
60319;BME280;46163;52.306;5.634;2023-02-10T01:12:47;103378.38;;;15.08;47.52
60319;BME280;46163;52.306;5.634;2023-02-10T01:15:13;103375.03;;;15.06;47.61
60319;BME280;46163;52.306;5.634;2023-02-10T01:17:38;103383.25;;;15.05;47.71
60319;BME280;46163;52.306;5.634;2023-02-10T01:20:05;103387.78;;;15.04;47.39
60319;BME280;46163;52.306;5.634;2023-02-10T01:22:34;103387.44;;;14.99;47.31
60319;BME280;46163;52.306;5.634;2023-02-10T01:25:00;103396.13;;;15.01;47.50
60319;BME280;46163;52.306;5.634;2023-02-10T01:27:26;103380.22;;;14.99;47.74
60319;BME280;46163;52.306;5.634;2023-02-10T01:29:52;103386.59;;;14.98;47.32
60319;BME280;46163;52.306;5.634;2023-02-10T01:32:17;103362.63;;;14.89;47.26
60319;BME280;46163;52.306;5.634;2023-02-10T01:34:43;103387.78;;;14.96;47.52
60319;BME280;46163;52.306;5.634;2023-02-10T01:37:09;103381.72;;;14.94;47.56
60319;BME280;46163;52.306;5.634;2023-02-10T01:39:34;103386.25;;;14.93;47.51
60319;BME280;46163;52.306;5.634;2023-02-10T01:42:01;103386.41;;;14.92;47.25
60319;BME280;46163;52.306;5.634;2023-02-10T01:46:53;103382.25;;;14.89;47.35
60319;BME280;46163;52.306;5.634;2023-02-10T01:49:22;103394.81;;;14.89;47.37
60319;BME280;46163;52.306;5.634;2023-02-10T01:51:57;103390.63;;;14.86;47.50
60319;BME280;46163;52.306;5.634;2023-02-10T01:54:30;103393.44;;;14.85;47.53
60319;BME280;46163;52.306;5.634;2023-02-10T01:56:56;103395.16;;;14.86;47.45
60319;BME280;46163;52.306;5.634;2023-02-10T01:59:26;103399.00;;;14.83;47.50
60319;BME280;46163;52.306;5.634;2023-02-10T02:01:53;103402.84;;;14.81;47.53
60319;BME280;46163;52.306;5.634;2023-02-10T02:04:19;103402.84;;;14.81;47.46
60319;BME280;46163;52.306;5.634;2023-02-10T02:06:45;103408.22;;;14.81;47.42
60319;BME280;46163;52.306;5.634;2023-02-10T02:09:11;103409.22;;;14.80;47.24
60319;BME280;46163;52.306;5.634;2023-02-10T02:19:52;103395.81;;;14.72;47.35
60319;BME280;46163;52.306;5.634;2023-02-10T02:23:08;103399.31;;;14.72;47.50
60319;BME280;46163;52.306;5.634;2023-02-10T02:26:09;103396.81;;;14.70;47.28
60319;BME280;46163;52.306;5.634;2023-02-10T02:34:10;103397.13;;;14.67;47.53
60319;BME280;46163;52.306;5.634;2023-02-10T02:36:48;103394.13;;;14.62;47.19
60319;BME280;46163;52.306;5.634;2023-02-10T02:39:15;103396.63;;;14.64;47.36
60319;BME280;46163;52.306;5.634;2023-02-10T02:41:40;103398.63;;;14.62;47.25
60319;BME280;46163;52.306;5.634;2023-02-10T02:44:06;103395.13;;;14.61;47.13
60319;BME280;46163;52.306;5.634;2023-02-10T02:49:58;103395.28;;;14.60;47.39
60319;BME280;46163;52.306;5.634;2023-02-10T03:01:23;103396.78;;;14.54;47.39
60319;BME280;46163;52.306;5.634;2023-02-10T03:03:52;103392.59;;;14.52;47.24
60319;BME280;46163;52.306;5.634;2023-02-10T03:06:21;103391.59;;;14.53;47.31
60319;BME280;46163;52.306;5.634;2023-02-10T03:08:46;103401.63;;;14.51;47.35
60319;BME280;46163;52.306;5.634;2023-02-10T03:11:12;103401.78;;;14.49;47.13
60319;BME280;46163;52.306;5.634;2023-02-10T03:13:37;103399.09;;;14.49;47.28
60319;BME280;46163;52.306;5.634;2023-02-10T03:16:03;103402.78;;;14.48;47.51
60319;BME280;46163;52.306;5.634;2023-02-10T03:18:29;103396.59;;;14.48;47.04
60319;BME280;46163;52.306;5.634;2023-02-10T03:20:54;103394.09;;;14.46;47.50
60319;BME280;46163;52.306;5.634;2023-02-10T03:23:20;103389.88;;;14.43;47.09
60319;BME280;46163;52.306;5.634;2023-02-10T03:25:45;103393.38;;;14.44;47.35
60319;BME280;46163;52.306;5.634;2023-02-10T03:28:11;103390.00;;;14.42;47.39
60319;BME280;46163;52.306;5.634;2023-02-10T03:30:37;103391.00;;;14.41;47.02
60319;BME280;46163;52.306;5.634;2023-02-10T03:33:03;103390.00;;;14.42;47.37
60319;BME280;46163;52.306;5.634;2023-02-10T03:35:29;103399.22;;;14.39;47.37
60319;BME280;46163;52.306;5.634;2023-02-10T03:37:54;103393.84;;;14.39;47.25
60319;BME280;46163;52.306;5.634;2023-02-10T03:40:20;103396.72;;;14.38;47.20
60319;BME280;46163;52.306;5.634;2023-02-10T03:42:45;103386.13;;;14.28;47.14
60319;BME280;46163;52.306;5.634;2023-02-10T03:45:11;103398.72;;;14.36;47.09
60319;BME280;46163;52.306;5.634;2023-02-10T03:47:36;103389.00;;;14.35;47.24
60319;BME280;46163;52.306;5.634;2023-02-10T03:50:02;103406.94;;;14.34;47.37
60319;BME280;46163;52.306;5.634;2023-02-10T03:52:27;103402.56;;;14.33;47.30
60319;BME280;46163;52.306;5.634;2023-02-10T03:54:53;103406.41;;;14.31;47.22
60319;BME280;46163;52.306;5.634;2023-02-10T03:57:18;103408.06;;;14.32;47.00
60319;BME280;46163;52.306;5.634;2023-02-10T03:59:44;103407.06;;;14.33;47.27
60319;BME280;46163;52.306;5.634;2023-02-10T04:02:09;103411.44;;;14.34;47.35
60319;BME280;46163;52.306;5.634;2023-02-10T04:04:35;103409.44;;;14.36;47.25
60319;BME280;46163;52.306;5.634;2023-02-10T04:07:02;103406.75;;;14.36;47.06
60319;BME280;46163;52.306;5.634;2023-02-10T04:09:29;103398.38;;;14.39;46.85
60319;BME280;46163;52.306;5.634;2023-02-10T04:11:54;103413.16;;;14.43;47.32
60319;BME280;46163;52.306;5.634;2023-02-10T04:14:20;103421.88;;;14.45;47.24
60319;BME280;46163;52.306;5.634;2023-02-10T04:16:45;103423.22;;;14.49;47.14
60319;BME280;46163;52.306;5.634;2023-02-10T04:19:11;103425.59;;;14.52;46.97
60319;BME280;46163;52.306;5.634;2023-02-10T04:21:36;103414.19;;;14.58;46.93
60319;BME280;46163;52.306;5.634;2023-02-10T04:24:02;103418.91;;;14.64;47.01
60319;BME280;46163;52.306;5.634;2023-02-10T04:26:27;103407.38;;;14.72;46.66
60319;BME280;46163;52.306;5.634;2023-02-10T04:28:53;103417.44;;;14.78;46.44
60319;BME280;46163;52.306;5.634;2023-02-10T04:31:18;103423.47;;;14.88;46.57
60319;BME280;46163;52.306;5.634;2023-02-10T04:33:44;103426.16;;;14.96;46.46
60319;BME280;46163;52.306;5.634;2023-02-10T04:36:10;103427.84;;;15.06;46.25
60319;BME280;46163;52.306;5.634;2023-02-10T04:38:35;103432.03;;;15.16;46.27
60319;BME280;46163;52.306;5.634;2023-02-10T04:41:01;103439.06;;;15.25;46.25
60319;BME280;46163;52.306;5.634;2023-02-10T04:43:28;103425.28;;;15.37;45.94
60319;BME280;46163;52.306;5.634;2023-02-10T04:45:54;103434.03;;;15.47;45.71
60319;BME280;46163;52.306;5.634;2023-02-10T04:48:19;103424.94;;;15.56;45.49
60319;BME280;46163;52.306;5.634;2023-02-10T04:50:46;103424.78;;;15.66;45.27
60319;BME280;46163;52.306;5.634;2023-02-10T04:53:12;103409.69;;;15.73;45.28
60319;BME280;46163;52.306;5.634;2023-02-10T04:55:40;103423.75;;;15.83;45.00
60319;BME280;46163;52.306;5.634;2023-02-10T04:58:05;103417.50;;;15.91;44.98
60319;BME280;46163;52.306;5.634;2023-02-10T05:00:32;103413.91;;;15.98;44.68
60319;BME280;46163;52.306;5.634;2023-02-10T05:02:57;103413.22;;;16.04;44.52
60319;BME280;46163;52.306;5.634;2023-02-10T05:05:23;103402.63;;;16.11;44.42
60319;BME280;46163;52.306;5.634;2023-02-10T05:07:51;103400.28;;;16.16;44.30
60319;BME280;46163;52.306;5.634;2023-02-10T05:10:17;103407.63;;;16.22;44.25
60319;BME280;46163;52.306;5.634;2023-02-10T05:12:42;103404.41;;;16.27;44.26
60319;BME280;46163;52.306;5.634;2023-02-10T05:15:08;103409.25;;;16.31;44.00
60319;BME280;46163;52.306;5.634;2023-02-10T05:17:34;103406.88;;;16.36;44.04
60319;BME280;46163;52.306;5.634;2023-02-10T05:20:00;103412.72;;;16.40;43.99
60319;BME280;46163;52.306;5.634;2023-02-10T05:22:26;103413.22;;;16.44;44.11
60319;BME280;46163;52.306;5.634;2023-02-10T05:24:57;103415.38;;;16.48;44.01
60319;BME280;46163;52.306;5.634;2023-02-10T05:27:26;103415.88;;;16.52;43.84
60319;BME280;46163;52.306;5.634;2023-02-10T05:29:52;103416.16;;;16.57;44.27
60319;BME280;46163;52.306;5.634;2023-02-10T05:32:18;103414.13;;;16.59;43.88
60319;BME280;46163;52.306;5.634;2023-02-10T05:34:44;103420.63;;;16.64;43.84
60319;BME280;46163;52.306;5.634;2023-02-10T05:37:09;103418.97;;;16.63;43.95
60319;BME280;46163;52.306;5.634;2023-02-10T05:39:35;103418.44;;;16.68;43.62
60319;BME280;46163;52.306;5.634;2023-02-10T05:42:00;103411.25;;;16.69;43.77
60319;BME280;46163;52.306;5.634;2023-02-10T05:44:27;103412.72;;;16.71;43.76
60319;BME280;46163;52.306;5.634;2023-02-10T05:46:53;103410.69;;;16.73;43.60
60319;BME280;46163;52.306;5.634;2023-02-10T05:49:19;103402.63;;;16.73;43.50
60319;BME280;46163;52.306;5.634;2023-02-10T05:51:47;103410.00;;;16.79;43.45
60319;BME280;46163;52.306;5.634;2023-02-10T05:54:13;103417.50;;;16.84;43.61
60319;BME280;46163;52.306;5.634;2023-02-10T05:56:39;103416.16;;;16.88;43.48
60319;BME280;46163;52.306;5.634;2023-02-10T05:59:05;103408.91;;;16.88;43.50
60319;BME280;46163;52.306;5.634;2023-02-10T06:01:32;103410.56;;;16.89;43.40
60319;BME280;46163;52.306;5.634;2023-02-10T06:03:57;103405.31;;;16.96;43.44
60319;BME280;46163;52.306;5.634;2023-02-10T06:06:23;103399.38;;;17.01;43.08
60319;BME280;46163;52.306;5.634;2023-02-10T06:08:49;103412.50;;;17.04;43.23
60319;BME280;46163;52.306;5.634;2023-02-10T06:11:14;103414.16;;;17.05;43.06
60319;BME280;46163;52.306;5.634;2023-02-10T06:13:40;103410.91;;;17.09;43.10
60319;BME280;46163;52.306;5.634;2023-02-10T06:16:06;103419.47;;;17.13;43.13
60319;BME280;46163;52.306;5.634;2023-02-10T06:18:31;103422.44;;;17.18;42.97
60319;BME280;46163;52.306;5.634;2023-02-10T06:20:57;103420.41;;;17.20;43.04
60319;BME280;46163;52.306;5.634;2023-02-10T06:23:24;103417.56;;;17.21;43.08
60319;BME280;46163;52.306;5.634;2023-02-10T06:25:50;103414.03;;;17.21;43.04
60319;BME280;46163;52.306;5.634;2023-02-10T06:28:26;103423.59;;;17.23;42.76
60319;BME280;46163;52.306;5.634;2023-02-10T06:30:52;103417.38;;;17.23;43.07
60319;BME280;46163;52.306;5.634;2023-02-10T06:33:18;103420.69;;;17.25;42.99
60319;BME280;46163;52.306;5.634;2023-02-10T06:35:45;103424.78;;;17.21;43.32
60319;BME280;46163;52.306;5.634;2023-02-10T06:38:11;103428.38;;;17.13;43.50
60319;BME280;46163;52.306;5.634;2023-02-10T06:40:36;103430.88;;;17.15;43.35
60319;BME280;46163;52.306;5.634;2023-02-10T06:43:02;103434.22;;;17.17;43.39
60319;BME280;46163;52.306;5.634;2023-02-10T06:45:28;103440.09;;;17.20;43.48
60319;BME280;46163;52.306;5.634;2023-02-10T06:47:54;103435.00;;;17.26;43.37
60319;BME280;46163;52.306;5.634;2023-02-10T06:50:20;103430.94;;;17.30;43.30
60319;BME280;46163;52.306;5.634;2023-02-10T06:52:46;103439.47;;;17.33;43.14
60319;BME280;46163;52.306;5.634;2023-02-10T06:55:12;103432.22;;;17.34;42.91
60319;BME280;46163;52.306;5.634;2023-02-10T06:57:38;103443.44;;;17.37;43.36
60319;BME280;46163;52.306;5.634;2023-02-10T07:00:06;103441.25;;;17.41;42.88
60319;BME280;46163;52.306;5.634;2023-02-10T07:02:33;103428.50;;;17.35;43.09
60319;BME280;46163;52.306;5.634;2023-02-10T07:04:58;103436.69;;;17.41;42.83
60319;BME280;46163;52.306;5.634;2023-02-10T07:07:24;103433.34;;;17.39;42.96
60319;BME280;46163;52.306;5.634;2023-02-10T07:09:49;103439.31;;;17.49;42.76
60319;BME280;46163;52.306;5.634;2023-02-10T07:12:19;103439.13;;;17.51;42.70
60319;BME280;46163;52.306;5.634;2023-02-10T07:14:45;103427.91;;;17.47;42.80
60319;BME280;46163;52.306;5.634;2023-02-10T07:17:11;103447.50;;;17.56;42.78
60319;BME280;46163;52.306;5.634;2023-02-10T07:19:37;103439.41;;;17.56;42.28
60319;BME280;46163;52.306;5.634;2023-02-10T07:22:03;103444.97;;;17.55;42.29
60319;BME280;46163;52.306;5.634;2023-02-10T07:24:32;103442.38;;;17.61;42.20
60319;BME280;46163;52.306;5.634;2023-02-10T07:26:58;103439.50;;;17.63;42.47
60319;BME280;46163;52.306;5.634;2023-02-10T07:29:24;103447.56;;;17.63;42.42
60319;BME280;46163;52.306;5.634;2023-02-10T07:31:49;103449.09;;;17.65;42.41
60319;BME280;46163;52.306;5.634;2023-02-10T07:34:15;103450.94;;;17.65;42.39
60319;BME280;46163;52.306;5.634;2023-02-10T07:37:00;103456.78;;;17.68;42.27
60319;BME280;46163;52.306;5.634;2023-02-10T07:39:30;103460.88;;;17.64;42.63
60319;BME280;46163;52.306;5.634;2023-02-10T07:41:56;103475.19;;;17.65;42.53
60319;BME280;46163;52.306;5.634;2023-02-10T07:44:22;103478.19;;;17.70;42.60
60319;BME280;46163;52.306;5.634;2023-02-10T07:46:50;103474.81;;;17.68;42.38
60319;BME280;46163;52.306;5.634;2023-02-10T07:49:15;103476.47;;;17.69;42.41
60319;BME280;46163;52.306;5.634;2023-02-10T07:51:41;103473.78;;;17.69;42.33
60319;BME280;46163;52.306;5.634;2023-02-10T07:54:08;103475.28;;;17.71;42.42
60319;BME280;46163;52.306;5.634;2023-02-10T07:56:33;103471.75;;;17.71;42.57
60319;BME280;46163;52.306;5.634;2023-02-10T07:58:59;103482.19;;;17.74;42.53
60319;BME280;46163;52.306;5.634;2023-02-10T08:01:24;103475.97;;;17.73;42.37
60319;BME280;46163;52.306;5.634;2023-02-10T08:03:50;103488.22;;;17.76;42.55
60319;BME280;46163;52.306;5.634;2023-02-10T08:06:24;103488.22;;;17.76;42.72
60319;BME280;46163;52.306;5.634;2023-02-10T08:08:50;103482.66;;;17.77;42.84
60319;BME280;46163;52.306;5.634;2023-02-10T08:11:16;103480.13;;;17.76;42.63
60319;BME280;46163;52.306;5.634;2023-02-10T08:13:42;103476.44;;;17.77;42.77
60319;BME280;46163;52.306;5.634;2023-02-10T08:16:08;103470.19;;;17.76;43.07
60319;BME280;46163;52.306;5.634;2023-02-10T08:18:37;103465.66;;;17.77;43.01
60319;BME280;46163;52.306;5.634;2023-02-10T08:21:02;103462.75;;;17.78;42.95
60319;BME280;46163;52.306;5.634;2023-02-10T08:23:29;103465.28;;;17.80;43.33
60319;BME280;46163;52.306;5.634;2023-02-10T08:25:56;103454.50;;;17.80;43.78
60319;BME280;46163;52.306;5.634;2023-02-10T08:28:21;103461.59;;;17.81;43.80
60319;BME280;46163;52.306;5.634;2023-02-10T08:30:47;103463.91;;;17.84;44.18
60319;BME280;46163;52.306;5.634;2023-02-10T08:33:13;103465.56;;;17.85;43.78
60319;BME280;46163;52.306;5.634;2023-02-10T08:35:39;103473.94;;;17.90;43.97
60319;BME280;46163;52.306;5.634;2023-02-10T08:38:05;103473.25;;;17.88;43.83
60319;BME280;46163;52.306;5.634;2023-02-10T08:40:32;103469.00;;;17.94;44.14
60319;BME280;46163;52.306;5.634;2023-02-10T08:42:58;103485.81;;;17.96;43.88
60319;BME280;46163;52.306;5.634;2023-02-10T08:45:24;103472.25;;;17.89;43.63
60319;BME280;46163;52.306;5.634;2023-02-10T08:47:49;103478.66;;;17.88;43.19
60319;BME280;46163;52.306;5.634;2023-02-10T08:50:15;103480.16;;;17.91;43.40
60319;BME280;46163;52.306;5.634;2023-02-10T08:52:40;103484.16;;;17.95;43.84
60319;BME280;46163;52.306;5.634;2023-02-10T08:55:06;103481.94;;;17.98;43.89
60319;BME280;46163;52.306;5.634;2023-02-10T08:57:33;103481.06;;;17.98;43.99
60319;BME280;46163;52.306;5.634;2023-02-10T08:59:59;103490.19;;;17.97;43.62
60319;BME280;46163;52.306;5.634;2023-02-10T09:02:24;103496.25;;;17.99;43.88
60319;BME280;46163;52.306;5.634;2023-02-10T09:04:50;103487.47;;;17.97;43.77
60319;BME280;46163;52.306;5.634;2023-02-10T09:07:15;103485.63;;;17.97;43.65
60319;BME280;46163;52.306;5.634;2023-02-10T09:09:42;103487.47;;;17.97;43.75
60319;BME280;46163;52.306;5.634;2023-02-10T09:12:09;103491.84;;;17.98;44.05
60319;BME280;46163;52.306;5.634;2023-02-10T09:14:39;103490.84;;;17.99;43.71
60319;BME280;46163;52.306;5.634;2023-02-10T09:17:06;103494.53;;;17.98;43.93
60319;BME280;46163;52.306;5.634;2023-02-10T09:19:36;103492.72;;;17.98;43.63
60319;BME280;46163;52.306;5.634;2023-02-10T09:22:05;103494.38;;;17.99;43.80
60319;BME280;46163;52.306;5.634;2023-02-10T09:24:33;103492.13;;;18.03;43.56
60319;BME280;46163;52.306;5.634;2023-02-10T09:26:59;103483.88;;;18.04;43.43
60319;BME280;46163;52.306;5.634;2023-02-10T09:29:28;103480.13;;;18.05;43.46
60319;BME280;46163;52.306;5.634;2023-02-10T09:31:54;103480.97;;;18.06;43.55
60319;BME280;46163;52.306;5.634;2023-02-10T09:34:22;103481.81;;;18.06;43.66
60319;BME280;46163;52.306;5.634;2023-02-10T09:36:52;103492.44;;;18.08;43.46
60319;BME280;46163;52.306;5.634;2023-02-10T09:39:32;103497.44;;;18.11;43.29
60319;BME280;46163;52.306;5.634;2023-02-10T09:45:38;103499.09;;;18.12;43.30
60319;BME280;46163;52.306;5.634;2023-02-10T09:48:40;103490.56;;;18.08;42.98
60319;BME280;46163;52.306;5.634;2023-02-10T09:54:26;103497.88;;;18.15;42.93
60319;BME280;46163;52.306;5.634;2023-02-10T09:57:01;103490.81;;;18.14;42.85
60319;BME280;46163;52.306;5.634;2023-02-10T09:59:29;103488.97;;;18.14;42.54
60319;BME280;46163;52.306;5.634;2023-02-10T10:02:01;103489.81;;;18.15;42.43
60319;BME280;46163;52.306;5.634;2023-02-10T10:04:30;103496.22;;;18.14;42.31
60319;BME280;46163;52.306;5.634;2023-02-10T10:09:45;103502.72;;;18.19;42.88
60319;BME280;46163;52.306;5.634;2023-02-10T10:12:18;103502.53;;;18.21;42.92
60319;BME280;46163;52.306;5.634;2023-02-10T10:14:44;103501.16;;;18.25;42.98
60319;BME280;46163;52.306;5.634;2023-02-10T10:33:22;103490.16;;;18.41;42.85
60319;BME280;46163;52.306;5.634;2023-02-10T10:35:48;103496.84;;;18.45;42.67
60319;BME280;46163;52.306;5.634;2023-02-10T10:38:46;103486.91;;;18.46;42.49
60319;BME280;46163;52.306;5.634;2023-02-10T10:41:14;103495.81;;;18.46;42.63
60319;BME280;46163;52.306;5.634;2023-02-10T10:43:49;103497.47;;;18.47;42.78
60319;BME280;46163;52.306;5.634;2023-02-10T10:46:26;103500.00;;;18.49;42.44
60319;BME280;46163;52.306;5.634;2023-02-10T10:48:53;103491.06;;;18.48;42.55
60319;BME280;46163;52.306;5.634;2023-02-10T10:51:19;103499.78;;;18.50;42.72
60319;BME280;46163;52.306;5.634;2023-02-10T10:54:04;103500.28;;;18.54;42.64
60319;BME280;46163;52.306;5.634;2023-02-10T10:56:38;103499.63;;;18.52;42.57
60319;BME280;46163;52.306;5.634;2023-02-10T11:01:48;103495.31;;;18.57;42.72
60319;BME280;46163;52.306;5.634;2023-02-10T11:04:17;103483.91;;;18.55;42.59
60319;BME280;46163;52.306;5.634;2023-02-10T11:06:45;103491.59;;;18.58;42.69
60319;BME280;46163;52.306;5.634;2023-02-10T11:09:28;103471.84;;;18.51;42.35
60319;BME280;46163;52.306;5.634;2023-02-10T11:14:37;103492.28;;;18.60;42.61
60319;BME280;46163;52.306;5.634;2023-02-10T11:17:23;103486.88;;;18.60;42.42
60319;BME280;46163;52.306;5.634;2023-02-10T11:20:02;103481.09;;;18.63;42.30
60319;BME280;46163;52.306;5.634;2023-02-10T11:22:28;103479.22;;;18.64;42.35
60319;BME280;46163;52.306;5.634;2023-02-10T11:24:57;103472.84;;;18.65;42.49
60319;BME280;46163;52.306;5.634;2023-02-10T11:27:22;103471.59;;;18.68;42.52
60319;BME280;46163;52.306;5.634;2023-02-10T11:29:52;103466.22;;;18.68;42.21
60319;BME280;46163;52.306;5.634;2023-02-10T11:32:30;103466.22;;;18.68;42.06
60319;BME280;46163;52.306;5.634;2023-02-10T11:34:59;103456.81;;;18.63;42.29
60319;BME280;46163;52.306;5.634;2023-02-10T11:37:33;103451.88;;;18.67;42.27
60319;BME280;46163;52.306;5.634;2023-02-10T11:40:04;103450.03;;;18.68;41.88
60319;BME280;46163;52.306;5.634;2023-02-10T11:42:40;103443.16;;;18.65;41.90
60319;BME280;46163;52.306;5.634;2023-02-10T11:45:18;103446.84;;;18.64;41.62
60319;BME280;46163;52.306;5.634;2023-02-10T11:47:45;103429.19;;;18.61;41.62
60319;BME280;46163;52.306;5.634;2023-02-10T11:50:25;103428.94;;;18.56;41.42
60319;BME280;46163;52.306;5.634;2023-02-10T11:52:51;103437.41;;;18.53;41.72
60319;BME280;46163;52.306;5.634;2023-02-10T11:55:17;103436.94;;;18.50;41.83
60319;BME280;46163;52.306;5.634;2023-02-10T11:58:00;103438.81;;;18.49;41.57
60319;BME280;46163;52.306;5.634;2023-02-10T12:01:03;103435.84;;;18.44;41.99
60319;BME280;46163;52.306;5.634;2023-02-10T12:08:51;103442.00;;;18.38;42.18
60319;BME280;46163;52.306;5.634;2023-02-10T12:12:03;103441.72;;;18.33;41.96
60319;BME280;46163;52.306;5.634;2023-02-10T12:14:53;103443.59;;;18.32;42.08
60319;BME280;46163;52.306;5.634;2023-02-10T12:45:42;103428.69;;;18.51;43.30
60319;BME280;46163;52.306;5.634;2023-02-10T12:53:45;103421.59;;;18.50;43.25
60319;BME280;46163;52.306;5.634;2023-02-10T12:59:08;103405.25;;;18.52;43.15
60319;BME280;46163;52.306;5.634;2023-02-10T13:01:42;103394.47;;;18.52;43.27
60319;BME280;46163;52.306;5.634;2023-02-10T13:04:25;103382.44;;;18.54;43.35
60319;BME280;46163;52.306;5.634;2023-02-10T13:09:43;103380.38;;;18.56;43.31
60319;BME280;46163;52.306;5.634;2023-02-10T13:12:22;103379.56;;;18.56;43.10
60319;BME280;46163;52.306;5.634;2023-02-10T13:14:52;103369.59;;;18.56;43.43
60319;BME280;46163;52.306;5.634;2023-02-10T13:17:19;103362.13;;;18.58;43.38
60319;BME280;46163;52.306;5.634;2023-02-10T13:22:16;103358.19;;;18.54;43.69
60319;BME280;46163;52.306;5.634;2023-02-10T13:25:37;103354.19;;;18.50;43.65
60319;BME280;46163;52.306;5.634;2023-02-10T13:28:27;103344.63;;;18.48;43.75
60319;BME280;46163;52.306;5.634;2023-02-10T13:36:35;103347.19;;;18.56;43.74
60319;BME280;46163;52.306;5.634;2023-02-10T13:39:15;103348.03;;;18.56;43.88
60319;BME280;46163;52.306;5.634;2023-02-10T13:41:44;103342.00;;;18.54;43.75
60319;BME280;46163;52.306;5.634;2023-02-10T13:44:33;103326.00;;;18.53;43.95
60319;BME280;46163;52.306;5.634;2023-02-10T13:49:38;103329.53;;;18.53;43.76
60319;BME280;46163;52.306;5.634;2023-02-10T13:52:25;103331.22;;;18.54;43.96
60319;BME280;46163;52.306;5.634;2023-02-10T13:54:56;103323.13;;;18.54;43.92
60319;BME280;46163;52.306;5.634;2023-02-10T13:57:35;103315.66;;;18.56;43.77
60319;BME280;46163;52.306;5.634;2023-02-10T14:00:23;103316.28;;;18.58;43.70
60319;BME280;46163;52.306;5.634;2023-02-10T14:03:25;103317.13;;;18.59;43.76
60319;BME280;46163;52.306;5.634;2023-02-10T14:05:58;103310.72;;;18.60;43.60
60319;BME280;46163;52.306;5.634;2023-02-10T14:13:41;103291.25;;;18.64;43.54
60319;BME280;46163;52.306;5.634;2023-02-10T14:16:28;103296.66;;;18.64;43.54
60319;BME280;46163;52.306;5.634;2023-02-10T14:19:06;103303.75;;;18.66;43.58
60319;BME280;46163;52.306;5.634;2023-02-10T14:21:45;103298.34;;;18.66;43.64
60319;BME280;46163;52.306;5.634;2023-02-10T14:24:16;103308.94;;;18.67;43.58
60319;BME280;46163;52.306;5.634;2023-02-10T14:26:44;103301.66;;;18.68;43.78
60319;BME280;46163;52.306;5.634;2023-02-10T14:29:17;103297.16;;;18.68;43.82
60319;BME280;46163;52.306;5.634;2023-02-10T14:31:46;103297.97;;;18.69;43.61
60319;BME280;46163;52.306;5.634;2023-02-10T14:39:21;103280.75;;;18.70;43.79
60319;BME280;46163;52.306;5.634;2023-02-10T14:41:50;103284.28;;;18.70;43.91
60319;BME280;46163;52.306;5.634;2023-02-10T14:44:33;103277.13;;;18.62;44.06
60319;BME280;46163;52.306;5.634;2023-02-10T14:47:00;103289.88;;;18.69;44.04
60319;BME280;46163;52.306;5.634;2023-02-10T14:49:25;103294.25;;;18.70;43.90
60319;BME280;46163;52.306;5.634;2023-02-10T14:51:53;103295.28;;;18.69;44.33
60319;BME280;46163;52.306;5.634;2023-02-10T14:54:24;103312.09;;;18.71;44.07
60319;BME280;46163;52.306;5.634;2023-02-10T14:56:53;103301.66;;;18.68;44.21
60319;BME280;46163;52.306;5.634;2023-02-10T14:59:21;103306.25;;;18.67;43.92
60319;BME280;46163;52.306;5.634;2023-02-10T15:01:48;103298.16;;;18.67;43.98
60319;BME280;46163;52.306;5.634;2023-02-10T15:04:15;103298.34;;;18.66;43.91
60319;BME280;46163;52.306;5.634;2023-02-10T15:06:44;103293.31;;;18.62;43.82